createdAt,value
2022-11-18T00:01:14.791Z,13.40
2022-11-18T00:03:41.929Z,17.53
2022-11-18T00:06:11.957Z,12.25
2022-11-18T00:08:38.500Z,12.70
2022-11-18T00:11:10.193Z,17.83
2022-11-18T00:13:58.084Z,16.33
2022-11-18T00:16:24.923Z,14.53
2022-11-18T00:18:51.576Z,13.57
2022-11-18T00:21:18.108Z,11.07
2022-11-18T00:23:44.672Z,16.27
2022-11-18T00:26:14.666Z,14.55
2022-11-18T00:28:42.013Z,14.87
2022-11-18T00:31:13.864Z,12.32
2022-11-18T00:33:41.069Z,15.10
2022-11-18T00:36:10.659Z,17.35
2022-11-18T00:38:37.743Z,11.60
2022-11-18T00:41:11.765Z,16.73
2022-11-18T00:43:39.087Z,12.82
2022-11-18T00:46:07.813Z,12.75
2022-11-18T00:48:35.008Z,11.90
2022-11-18T00:51:16.698Z,13.38
2022-11-18T00:53:43.536Z,14.17
2022-11-18T00:56:10.821Z,13.48
2022-11-18T00:58:37.762Z,12.75
2022-11-18T01:01:05.088Z,12.25
2022-11-18T01:03:31.878Z,12.65
2022-11-18T01:05:58.421Z,16.80
2022-11-18T01:08:25.930Z,14.50
2022-11-18T01:10:52.724Z,13.27
2022-11-18T01:13:20.706Z,17.48
2022-11-18T01:15:50.311Z,17.08
2022-11-18T01:18:18.851Z,16.37
2022-11-18T01:20:46.168Z,14.88
2022-11-18T01:23:13.281Z,15.60
2022-11-18T01:25:41.752Z,18.60
2022-11-18T01:28:08.351Z,15.90
2022-11-18T01:30:36.737Z,17.23
2022-11-18T01:33:04.164Z,16.08
2022-11-18T01:35:41.488Z,13.50
2022-11-18T01:38:10.326Z,16.17
2022-11-18T01:40:37.218Z,14.20
2022-11-18T01:43:12.319Z,13.97
2022-11-18T01:45:40.602Z,17.05
2022-11-18T01:48:09.618Z,18.60
2022-11-18T01:50:41.515Z,16.00
2022-11-18T01:53:14.928Z,19.25
2022-11-18T01:55:46.202Z,18.00
2022-11-18T01:58:18.806Z,19.48
2022-11-18T02:00:45.375Z,15.82
2022-11-18T02:03:12.250Z,18.73
2022-11-18T02:05:40.513Z,17.23
2022-11-18T02:08:07.722Z,19.97
2022-11-18T02:10:34.258Z,15.75
2022-11-18T02:13:01.673Z,18.38
2022-11-18T02:16:06.367Z,16.08
2022-11-18T02:18:41.701Z,22.10
2022-11-18T02:21:35.381Z,16.63
2022-11-18T02:24:11.572Z,16.23
2022-11-18T02:26:54.669Z,19.00
2022-11-18T02:29:26.514Z,20.98
2022-11-18T02:32:00.477Z,22.05
2022-11-18T02:34:48.623Z,25.77
2022-11-18T02:37:50.286Z,30.08
2022-11-18T02:40:23.277Z,23.33
2022-11-18T02:43:00.067Z,22.23
2022-11-18T02:45:28.074Z,21.10
2022-11-18T02:47:57.465Z,21.83
2022-11-18T02:50:27.736Z,23.40
2022-11-18T02:52:58.650Z,18.05
2022-11-18T02:55:28.991Z,25.25
2022-11-18T02:57:57.356Z,20.40
2022-11-18T03:00:23.934Z,20.87
2022-11-18T03:02:50.767Z,20.10
2022-11-18T03:05:37.662Z,20.63
2022-11-18T03:08:11.059Z,21.42
2022-11-18T03:10:47.370Z,21.75
2022-11-18T03:13:38.571Z,23.10
2022-11-18T03:16:11.347Z,20.05
2022-11-18T03:18:53.418Z,20.55
2022-11-18T03:21:43.690Z,23.55
2022-11-18T03:24:20.619Z,21.95
2022-11-18T03:26:54.143Z,22.23
2022-11-18T03:29:34.313Z,17.98
2022-11-18T03:32:06.556Z,19.25
2022-11-18T03:35:07.677Z,20.38
2022-11-18T03:37:35.761Z,26.48
2022-11-18T03:40:11.669Z,21.23
2022-11-18T03:42:46.262Z,17.60
2022-11-18T03:45:19.688Z,20.48
2022-11-18T03:47:58.995Z,22.42
2022-11-18T03:50:33.580Z,23.05
2022-11-18T03:53:01.502Z,17.80
2022-11-18T03:55:33.719Z,21.25
2022-11-18T03:58:13.213Z,21.30
2022-11-18T04:00:44.704Z,18.88
2022-11-18T04:03:11.624Z,19.77
2022-11-18T04:05:41.509Z,19.53
2022-11-18T04:08:15.616Z,17.58
2022-11-18T04:10:47.743Z,15.32
2022-11-18T04:13:27.336Z,15.82
2022-11-18T04:15:54.514Z,16.40
2022-11-18T04:18:21.773Z,18.00
2022-11-18T04:20:48.236Z,14.30
2022-11-18T04:23:14.843Z,14.80
2022-11-18T04:25:41.459Z,14.00
2022-11-18T04:28:08.092Z,13.73
2022-11-18T04:30:34.990Z,11.87
2022-11-18T04:33:01.555Z,11.38
2022-11-18T04:35:28.518Z,9.40
2022-11-18T04:37:55.066Z,12.27
2022-11-18T04:40:21.655Z,11.45
2022-11-18T04:42:48.211Z,11.17
2022-11-18T04:45:14.822Z,11.02
2022-11-18T04:47:41.546Z,10.60
2022-11-18T04:50:08.518Z,10.88
2022-11-18T04:52:35.119Z,9.52
2022-11-18T04:55:01.688Z,8.63
2022-11-18T04:57:28.211Z,8.70
2022-11-18T04:59:54.763Z,9.98
2022-11-18T05:02:21.239Z,9.48
2022-11-18T05:04:47.963Z,9.45
2022-11-18T05:07:15.760Z,8.97
2022-11-18T05:09:42.682Z,11.07
2022-11-18T05:12:33.172Z,11.25
2022-11-18T05:14:59.856Z,9.82
2022-11-18T05:17:26.648Z,12.32
2022-11-18T05:19:53.322Z,12.10
2022-11-18T05:22:19.917Z,11.63
2022-11-18T05:24:46.651Z,13.02
2022-11-18T05:27:14.409Z,13.93
2022-11-18T05:29:40.959Z,13.02
2022-11-18T05:32:07.484Z,14.87
2022-11-18T05:34:33.995Z,13.30
2022-11-18T05:37:00.619Z,12.23
2022-11-18T05:39:27.089Z,15.55
2022-11-18T05:42:12.001Z,14.43
2022-11-18T05:44:38.478Z,14.83
2022-11-18T05:47:05.151Z,12.40
2022-11-18T05:49:31.687Z,14.75
2022-11-18T05:51:58.253Z,18.25
2022-11-18T05:54:25.539Z,14.45
2022-11-18T05:56:52.176Z,14.50
2022-11-18T05:59:18.946Z,15.05
2022-11-18T06:01:57.045Z,11.68
2022-11-18T06:04:32.994Z,11.40
2022-11-18T06:07:05.969Z,12.10
2022-11-18T06:09:36.084Z,11.33
2022-11-18T06:12:04.971Z,11.38
2022-11-18T06:14:47.198Z,12.80
2022-11-18T06:17:22.698Z,11.88
2022-11-18T06:19:49.510Z,12.32
2022-11-18T06:22:16.163Z,15.73
2022-11-18T06:24:43.425Z,13.93
2022-11-18T06:27:10.388Z,13.38
2022-11-18T06:29:36.952Z,13.25
2022-11-18T06:32:03.616Z,12.40
2022-11-18T06:34:30.106Z,12.43
2022-11-18T06:36:56.581Z,10.63
2022-11-18T06:39:23.115Z,11.35
2022-11-18T06:41:52.808Z,13.02
2022-11-18T06:44:19.441Z,13.90
2022-11-18T06:46:58.197Z,16.63
2022-11-18T06:49:27.018Z,14.18
2022-11-18T06:51:54.310Z,13.75
2022-11-18T06:54:21.030Z,14.43
2022-11-18T06:56:47.625Z,14.68
2022-11-18T06:59:14.544Z,14.07
2022-11-18T07:01:41.899Z,16.38
2022-11-18T07:04:08.930Z,14.35
2022-11-18T07:06:36.607Z,16.92
2022-11-18T07:09:06.119Z,16.33
2022-11-18T07:11:33.065Z,19.87
2022-11-18T07:14:00.261Z,15.68
2022-11-18T07:16:27.628Z,14.00
2022-11-18T07:18:55.582Z,14.40
2022-11-18T07:21:29.372Z,15.15
2022-11-18T07:23:56.989Z,22.00
2022-11-18T07:26:24.768Z,19.05
2022-11-18T07:28:51.505Z,17.00
2022-11-18T07:31:20.305Z,17.88
2022-11-18T07:33:48.253Z,15.40
2022-11-18T07:36:18.113Z,18.00
2022-11-18T07:38:45.134Z,14.30
2022-11-18T07:41:15.983Z,17.58
2022-11-18T07:43:43.285Z,19.60
2022-11-18T07:46:13.802Z,22.77
2022-11-18T07:48:41.078Z,16.63
2022-11-18T07:51:08.086Z,18.85
2022-11-18T07:53:35.481Z,18.08
2022-11-18T07:56:02.700Z,19.75
2022-11-18T07:58:29.313Z,19.50
2022-11-18T08:00:58.316Z,20.70
2022-11-18T08:03:28.928Z,20.75
2022-11-18T08:05:59.755Z,16.38
2022-11-18T08:08:26.574Z,17.55
2022-11-18T08:11:00.874Z,20.50
2022-11-18T08:13:28.646Z,18.73
2022-11-18T08:15:56.031Z,17.48
2022-11-18T08:18:22.961Z,19.00
2022-11-18T08:20:49.536Z,18.20
2022-11-18T08:23:16.790Z,16.17
2022-11-18T08:25:45.131Z,17.53
2022-11-18T08:28:12.958Z,22.73
2022-11-18T08:30:39.900Z,21.73
2022-11-18T08:33:06.581Z,18.88
2022-11-18T08:35:33.517Z,21.70
2022-11-18T08:38:00.417Z,22.60
2022-11-18T08:40:27.064Z,21.52
2022-11-18T08:42:53.643Z,20.13
2022-11-18T08:45:20.200Z,25.80
2022-11-18T08:47:46.746Z,19.17
2022-11-18T08:50:13.351Z,18.97
2022-11-18T08:52:39.919Z,25.35
2022-11-18T08:55:06.789Z,25.08
2022-11-18T08:57:33.305Z,22.48
2022-11-18T08:59:59.998Z,25.83
2022-11-18T09:02:26.642Z,20.80
2022-11-18T09:04:53.554Z,22.45
2022-11-18T09:07:21.458Z,24.42
2022-11-18T09:09:48.620Z,20.17
2022-11-18T09:12:17.371Z,17.83
2022-11-18T09:17:31.499Z,16.98
2022-11-18T09:19:58.095Z,14.80
2022-11-18T09:22:24.684Z,12.52
2022-11-18T09:24:51.528Z,18.13
2022-11-18T09:27:18.311Z,18.13
2022-11-18T09:29:45.486Z,14.60
2022-11-18T09:32:12.166Z,13.18
2022-11-18T09:34:38.692Z,11.60
2022-11-18T09:37:06.505Z,12.80
2022-11-18T09:39:37.213Z,16.07
2022-11-18T09:42:25.524Z,14.45
2022-11-18T09:45:26.293Z,11.95
2022-11-18T09:47:57.587Z,11.65
2022-11-18T09:50:48.408Z,10.32
2022-11-18T09:53:22.565Z,10.33
2022-11-18T09:55:50.357Z,9.43
2022-11-18T09:58:22.572Z,10.27
2022-11-18T10:00:49.132Z,11.05
2022-11-18T10:03:18.695Z,13.23
2022-11-18T10:06:03.846Z,10.30
2022-11-18T10:08:44.227Z,8.30
2022-11-18T10:11:23.529Z,7.75
2022-11-18T10:13:56.792Z,6.55
2022-11-18T10:16:52.739Z,5.80
2022-11-18T10:19:23.352Z,6.43
2022-11-18T10:22:23.845Z,8.68
2022-11-18T10:24:56.779Z,6.68
2022-11-18T10:27:26.869Z,6.80
2022-11-18T10:29:57.002Z,5.28
2022-11-18T10:32:24.012Z,5.53
2022-11-18T10:34:56.454Z,6.53
2022-11-18T10:38:06.707Z,5.85
2022-11-18T10:40:29.380Z,5.47
2022-11-18T10:42:56.381Z,7.22
2022-11-18T10:45:22.852Z,5.50
2022-11-18T10:48:09.098Z,5.55
2022-11-18T10:50:41.424Z,4.80
2022-11-18T10:53:31.221Z,5.85
2022-11-18T10:56:02.995Z,3.25
2022-11-18T10:58:31.182Z,4.87
2022-11-18T11:01:20.779Z,2.65
2022-11-18T11:04:20.152Z,2.88
2022-11-18T11:06:46.822Z,2.70
2022-11-18T11:09:13.269Z,3.42
2022-11-18T11:12:11.765Z,4.40
2022-11-18T11:14:54.369Z,4.15
2022-11-18T11:18:10.336Z,4.22
2022-11-18T11:20:36.980Z,3.65
2022-11-18T11:23:10.534Z,3.80
2022-11-18T11:29:00.685Z,3.05
2022-11-18T11:31:42.351Z,5.13
2022-11-18T11:34:28.377Z,4.93
2022-11-18T11:37:04.285Z,10.05
2022-11-18T11:39:33.832Z,4.60
2022-11-18T11:42:08.996Z,13.25
2022-11-18T11:44:44.741Z,5.47
2022-11-18T11:47:49.845Z,4.35
2022-11-18T11:50:26.613Z,3.75
2022-11-18T11:53:20.422Z,4.33
2022-11-18T11:56:03.293Z,4.55
2022-11-18T11:58:50.789Z,6.32
2022-11-18T12:01:27.063Z,6.22
2022-11-18T12:04:08.098Z,7.18
2022-11-18T12:06:35.503Z,10.27
2022-11-18T12:09:27.007Z,6.72
2022-11-18T12:12:05.431Z,9.77
2022-11-18T12:14:46.012Z,4.72
2022-11-18T12:17:20.252Z,4.85
2022-11-18T12:19:46.808Z,5.73
2022-11-18T12:22:13.908Z,3.33
2022-11-18T12:24:42.478Z,4.47
2022-11-18T12:27:24.067Z,5.43
2022-11-18T12:29:50.719Z,3.45
2022-11-18T12:32:43.079Z,7.77
2022-11-18T12:35:12.710Z,2.28
2022-11-18T12:37:58.866Z,2.45
2022-11-18T12:40:36.131Z,3.08
2022-11-18T12:43:23.112Z,5.47
2022-11-18T12:45:53.315Z,2.43
2022-11-18T12:48:40.519Z,2.92
2022-11-18T12:51:16.132Z,3.60
2022-11-18T12:53:47.765Z,8.48
2022-11-18T12:56:17.011Z,6.97
2022-11-18T12:59:02.048Z,5.07
2022-11-18T13:01:31.760Z,3.50
2022-11-18T13:04:20.283Z,3.40
2022-11-18T13:06:47.425Z,5.00
2022-11-18T13:09:21.425Z,5.82
2022-11-18T13:11:54.051Z,2.57
2022-11-18T13:14:43.748Z,2.97
2022-11-18T13:17:48.709Z,1.52
2022-11-18T13:20:37.249Z,1.52
2022-11-18T13:23:28.347Z,3.28
2022-11-18T13:26:03.884Z,4.07
2022-11-18T13:28:40.300Z,2.40
2022-11-18T13:31:25.041Z,7.57
2022-11-18T13:33:52.656Z,1.73
2022-11-18T13:36:22.035Z,3.05
2022-11-18T13:39:00.211Z,3.00
2022-11-18T13:41:34.978Z,4.63
2022-11-18T13:44:11.054Z,7.50
2022-11-18T13:46:39.622Z,3.38
2022-11-18T13:49:06.395Z,4.88
2022-11-18T13:51:33.219Z,4.80
2022-11-18T13:53:59.924Z,3.92
2022-11-18T13:56:34.436Z,2.45
2022-11-18T13:59:16.899Z,2.53
2022-11-18T14:01:46.060Z,5.03
2022-11-18T14:04:31.462Z,2.80
2022-11-18T14:07:26.051Z,3.03
2022-11-18T14:10:00.415Z,3.15
2022-11-18T14:12:32.680Z,1.83
2022-11-18T14:15:42.085Z,4.55
2022-11-18T14:18:26.433Z,5.37
2022-11-18T14:20:54.747Z,2.85
2022-11-18T14:23:27.628Z,1.70
2022-11-18T14:25:54.825Z,3.38
2022-11-18T14:28:28.739Z,4.55
2022-11-18T14:30:55.215Z,5.13
2022-11-18T14:33:24.212Z,3.95
2022-11-18T14:36:00.120Z,3.60
2022-11-18T14:38:43.721Z,1.98
2022-11-18T14:41:43.939Z,5.40
2022-11-18T14:44:13.201Z,2.47
2022-11-18T14:46:41.325Z,4.60
2022-11-18T14:49:17.127Z,4.45
2022-11-18T14:51:45.166Z,3.63
2022-11-18T14:54:14.294Z,2.30
2022-11-18T14:56:42.384Z,3.90
2022-11-18T14:59:16.364Z,2.53
2022-11-18T15:01:43.880Z,3.95
2022-11-18T15:04:11.045Z,2.25
2022-11-18T15:06:38.990Z,3.13
2022-11-18T15:09:07.861Z,2.83
2022-11-18T15:11:35.085Z,3.10
2022-11-18T15:14:02.572Z,3.50
2022-11-18T15:16:31.009Z,3.20
2022-11-18T15:19:00.821Z,3.72
2022-11-18T15:21:27.888Z,2.17
2022-11-18T15:23:54.447Z,3.03
2022-11-18T15:26:38.942Z,4.57
2022-11-18T15:29:05.591Z,3.63
2022-11-18T15:31:32.486Z,9.13
2022-11-18T15:34:03.632Z,8.77
2022-11-18T15:36:31.830Z,8.23
2022-11-18T15:38:58.309Z,6.55
2022-11-18T15:41:27.133Z,6.72
2022-11-18T15:43:55.033Z,7.25
2022-11-18T15:46:23.510Z,6.33
2022-11-18T15:48:58.141Z,7.72
2022-11-18T15:51:26.455Z,6.72
2022-11-18T15:53:53.595Z,9.52
2022-11-18T15:56:23.261Z,6.63
2022-11-18T15:58:56.709Z,7.80
2022-11-18T16:01:24.466Z,11.02
2022-11-18T16:03:51.290Z,7.43
2022-11-18T16:06:18.284Z,7.03
2022-11-18T16:08:44.838Z,8.77
2022-11-18T16:11:32.462Z,6.30
2022-11-18T16:14:05.646Z,5.97
2022-11-18T16:16:33.242Z,4.07
2022-11-18T16:19:02.068Z,9.27
2022-11-18T16:21:29.857Z,4.88
2022-11-18T16:23:58.058Z,4.93
2022-11-18T16:26:26.004Z,4.55
2022-11-18T16:28:53.598Z,5.53
2022-11-18T16:31:39.542Z,5.45
2022-11-18T16:34:14.343Z,5.30
2022-11-18T16:36:43.092Z,5.80
2022-11-18T16:39:23.525Z,4.78
2022-11-18T16:41:50.909Z,7.22
2022-11-18T16:44:17.862Z,6.50
2022-11-18T16:46:49.816Z,5.68
2022-11-18T16:49:18.976Z,7.33
2022-11-18T16:51:48.118Z,5.15
2022-11-18T16:54:24.616Z,5.75
2022-11-18T16:56:52.477Z,6.80
2022-11-18T16:59:39.283Z,7.50
2022-11-18T17:02:06.315Z,11.30
2022-11-18T17:04:35.292Z,50.17
2022-11-18T17:07:02.164Z,18.25
2022-11-18T17:09:28.842Z,66.18
2022-11-18T17:11:56.480Z,11.43
2022-11-18T17:14:23.557Z,6.43
2022-11-18T17:16:51.302Z,9.73
2022-11-18T17:19:22.961Z,9.85
2022-11-18T17:21:51.528Z,7.20
2022-11-18T17:24:20.980Z,8.47
2022-11-18T17:26:48.555Z,10.32
2022-11-18T17:29:15.299Z,6.30
2022-11-18T17:31:42.701Z,9.65
2022-11-18T17:34:11.835Z,13.57
2022-11-18T17:36:38.415Z,7.60
2022-11-18T17:39:04.985Z,8.32
2022-11-18T17:41:50.163Z,6.90
2022-11-18T17:44:17.784Z,8.73
2022-11-18T17:46:46.951Z,9.27
2022-11-18T17:49:23.553Z,11.00
2022-11-18T17:51:53.507Z,7.63
2022-11-18T17:54:21.305Z,9.20
2022-11-18T17:56:48.706Z,5.30
2022-11-18T17:59:17.305Z,5.25
2022-11-18T18:01:45.383Z,8.75
2022-11-18T18:04:14.531Z,6.50
2022-11-18T18:06:41.449Z,4.65
2022-11-18T18:09:08.406Z,6.47
2022-11-18T18:11:35.015Z,3.55
2022-11-18T18:14:13.734Z,4.93
2022-11-18T18:16:42.170Z,6.47
2022-11-18T18:19:11.264Z,5.40
2022-11-18T18:21:37.928Z,6.10
2022-11-18T18:24:05.055Z,7.55
2022-11-18T18:26:32.183Z,7.30
2022-11-18T18:29:00.358Z,6.43
2022-11-18T18:31:27.428Z,7.30
2022-11-18T18:33:53.936Z,5.23
2022-11-18T18:36:21.046Z,7.03
2022-11-18T18:38:47.707Z,5.80
2022-11-18T18:41:20.013Z,6.32
2022-11-18T18:43:47.307Z,8.80
2022-11-18T18:46:28.688Z,6.03
2022-11-18T18:48:56.369Z,6.82
2022-11-18T18:51:23.291Z,5.47
2022-11-18T18:53:49.828Z,10.52
2022-11-18T18:56:16.386Z,5.03
2022-11-18T18:58:42.878Z,7.37
2022-11-18T19:01:12.529Z,6.85
2022-11-18T19:03:40.101Z,5.38
2022-11-18T19:09:14.125Z,4.23
2022-11-18T19:11:59.515Z,123.82
2022-11-18T19:14:26.589Z,104.60
2022-11-18T19:16:53.575Z,21.23
2022-11-18T19:19:41.243Z,8.33
2022-11-18T19:22:08.204Z,6.90
2022-11-18T19:24:49.123Z,5.55
2022-11-18T19:27:17.482Z,6.30
2022-11-18T19:29:44.189Z,5.15
2022-11-18T19:32:10.921Z,6.40
2022-11-18T19:34:37.476Z,5.45
2022-11-18T19:37:04.102Z,8.73
2022-11-18T19:39:30.636Z,8.40
2022-11-18T19:41:57.249Z,9.82
2022-11-18T19:44:23.859Z,7.13
2022-11-18T19:46:50.361Z,5.40
2022-11-18T19:49:17.309Z,5.55
2022-11-18T19:51:44.066Z,5.65
2022-11-18T19:54:10.605Z,6.15
2022-11-18T19:56:37.170Z,7.77
2022-11-18T19:59:03.775Z,5.13
2022-11-18T20:01:31.647Z,5.63
2022-11-18T20:03:59.986Z,7.97
2022-11-18T20:06:27.536Z,5.68
2022-11-18T20:08:55.683Z,7.27
2022-11-18T20:11:23.445Z,5.45
2022-11-18T20:13:50.632Z,6.18
2022-11-18T20:16:22.525Z,8.93
2022-11-18T20:18:54.432Z,5.90
2022-11-18T20:21:21.839Z,9.23
2022-11-18T20:23:57.080Z,7.75
2022-11-18T20:26:26.861Z,9.68
2022-11-18T20:28:57.524Z,6.70
2022-11-18T20:31:24.694Z,6.43
2022-11-18T20:33:53.276Z,7.70
2022-11-18T20:36:21.338Z,5.72
2022-11-18T20:38:55.442Z,9.40
2022-11-18T20:41:23.141Z,5.18
2022-11-18T20:43:50.159Z,6.03
2022-11-18T20:46:20.788Z,5.10
2022-11-18T20:48:48.841Z,7.22
2022-11-18T20:51:20.513Z,32.33
2022-11-18T20:53:47.946Z,6.07
2022-11-18T20:56:16.609Z,8.70
2022-11-18T20:58:44.468Z,7.40
2022-11-18T21:01:15.595Z,9.27
2022-11-18T21:03:43.418Z,6.47
2022-11-18T21:06:14.162Z,7.40
2022-11-18T21:08:41.671Z,6.20
2022-11-18T21:11:10.592Z,7.60
2022-11-18T21:13:55.783Z,7.10
2022-11-18T21:16:22.589Z,5.97
2022-11-18T21:18:49.230Z,3.70
2022-11-18T21:21:34.376Z,6.93
2022-11-18T21:24:02.474Z,7.13
2022-11-18T21:26:31.160Z,8.50
2022-11-18T21:29:00.423Z,6.15
2022-11-18T21:31:28.276Z,4.20
2022-11-18T21:33:55.177Z,7.67
2022-11-18T21:36:23.372Z,6.30
2022-11-18T21:38:50.167Z,4.85
2022-11-18T21:41:17.338Z,8.82
2022-11-18T21:44:04.431Z,5.83
2022-11-18T21:46:31.060Z,6.70
2022-11-18T21:49:00.272Z,5.50
2022-11-18T21:51:27.576Z,7.65
2022-11-18T21:53:54.578Z,7.03
2022-11-18T21:56:23.643Z,6.15
2022-11-18T21:58:50.893Z,5.25
2022-11-18T22:01:19.876Z,8.82
2022-11-18T22:04:01.059Z,13.73
2022-11-18T22:06:33.445Z,10.10
2022-11-18T22:09:01.099Z,9.13
2022-11-18T22:11:28.347Z,8.43
2022-11-18T22:13:55.370Z,12.13
2022-11-18T22:16:23.766Z,12.67
2022-11-18T22:18:57.264Z,10.73
2022-11-18T22:21:26.383Z,14.75
2022-11-18T22:23:56.872Z,12.98
2022-11-18T22:26:23.524Z,11.88
2022-11-18T22:28:53.592Z,13.30
2022-11-18T22:31:22.663Z,13.52
2022-11-18T22:33:50.964Z,12.30
2022-11-18T22:36:19.622Z,15.55
2022-11-18T22:38:46.595Z,13.43
2022-11-18T22:41:34.526Z,10.77
2022-11-18T22:44:07.103Z,6.88
2022-11-18T22:46:35.464Z,11.50
2022-11-18T22:49:02.156Z,9.80
2022-11-18T22:51:29.063Z,7.13
2022-11-18T22:54:15.985Z,8.65
2022-11-18T22:56:42.175Z,8.25
2022-11-18T22:59:11.223Z,20.58
2022-11-18T23:01:37.797Z,8.67
2022-11-18T23:04:04.531Z,8.40
2022-11-18T23:06:31.098Z,8.25
2022-11-18T23:08:57.590Z,9.02
2022-11-18T23:11:42.793Z,5.83
2022-11-18T23:14:10.216Z,6.35
2022-11-18T23:16:39.269Z,5.82
2022-11-18T23:19:08.126Z,7.22
2022-11-18T23:21:35.457Z,7.50
2022-11-18T23:24:02.307Z,5.95
2022-11-18T23:26:28.938Z,7.95
2022-11-18T23:28:55.744Z,6.32
2022-11-18T23:31:24.199Z,5.55
2022-11-18T23:33:51.225Z,7.20
2022-11-18T23:36:19.758Z,9.02
2022-11-18T23:38:47.118Z,6.80
2022-11-18T23:41:15.418Z,8.30
2022-11-18T23:43:42.243Z,9.00
2022-11-18T23:46:09.749Z,13.88
2022-11-18T23:48:38.332Z,6.28
2022-11-18T23:51:06.335Z,7.53
2022-11-18T23:53:34.061Z,5.65
2022-11-18T23:56:02.202Z,6.90
2022-11-18T23:58:29.037Z,5.63
